Time;durP1;ratioP1;P1;durP2;ratioP2;P2;SDS_P1;SDS_P2;PMS_P1;PMS_P2;Temp;Humidity;BMP_temperature;BMP_pressure;BME280_temperature;BME280_humidity;BME280_pressure;Samples;Min_cycle;Max_cycle;Signal;HPM_P1;HPM_P2
2021/06/27 00:01:30;;;;;;;5.68;3.70;;;23.80;51.80;;;;;;5032562;28;20034;-70
2021/06/27 00:03:56;;;;;;;6.25;3.85;;;23.80;51.80;;;;;;5032589;28;20033;-70
2021/06/27 00:06:22;;;;;;;6.20;3.95;;;23.70;51.80;;;;;;5032718;28;20022;-70
2021/06/27 00:08:48;;;;;;;6.68;3.90;;;23.80;51.80;;;;;;5032779;28;20430;-70
2021/06/27 00:11:16;;;;;;;6.68;4.03;;;23.70;51.90;;;;;;5032558;28;20493;-70
2021/06/27 00:13:43;;;;;;;5.60;3.72;;;23.70;51.90;;;;;;5032749;28;20041;-69
2021/06/27 00:16:10;;;;;;;6.88;4.07;;;23.70;51.90;;;;;;5032654;28;20113;-70
2021/06/27 00:18:36;;;;;;;6.03;3.95;;;23.70;52.00;;;;;;5032598;28;20025;-70
2021/06/27 00:21:06;;;;;;;6.35;3.80;;;23.70;52.00;;;;;;5032414;28;20138;-70
2021/06/27 00:23:36;;;;;;;6.32;4.10;;;23.70;52.00;;;;;;5032447;28;20036;-70
2021/06/27 00:26:03;;;;;;;5.72;3.47;;;23.70;52.10;;;;;;5032343;28;20030;-70
2021/06/27 00:28:28;;;;;;;7.03;4.53;;;23.60;52.10;;;;;;5033134;28;20033;-70
2021/06/27 00:30:54;;;;;;;6.22;4.00;;;23.60;52.10;;;;;;5032789;28;20071;-70
2021/06/27 00:33:22;;;;;;;5.82;3.70;;;23.60;52.10;;;;;;5032720;28;20174;-70
2021/06/27 00:35:48;;;;;;;6.95;4.15;;;23.60;52.10;;;;;;5036160;28;20030;-70
2021/06/27 00:38:14;;;;;;;6.30;3.88;;;23.60;52.20;;;;;;5035905;28;20115;-70
2021/06/27 00:40:40;;;;;;;5.97;3.58;;;23.60;52.20;;;;;;5036047;28;20084;-71
2021/06/27 00:43:06;;;;;;;6.47;3.78;;;23.60;52.20;;;;;;5036204;28;20136;-70
2021/06/27 00:45:32;;;;;;;6.32;4.10;;;23.60;52.20;;;;;;5035817;28;20136;-70
2021/06/27 00:47:58;;;;;;;5.93;3.92;;;23.50;52.20;;;;;;5036030;28;20101;-70
2021/06/27 00:50:31;;;;;;;6.18;4.15;;;23.50;52.20;;;;;;5036166;28;20035;-70
2021/06/27 00:52:58;;;;;;;7.10;3.55;;;23.50;52.20;;;;;;5036125;28;20028;-70
2021/06/27 00:55:24;;;;;;;6.38;3.75;;;23.50;52.30;;;;;;5040383;28;20029;-70
2021/06/27 00:57:51;;;;;;;6.47;3.65;;;23.50;52.30;;;;;;5036269;28;20032;-70
2021/06/27 01:00:23;;;;;;;6.72;4.30;;;23.50;52.30;;;;;;5035812;28;20026;-70
2021/06/27 01:02:49;;;;;;;6.20;3.90;;;23.50;52.30;;;;;;5035638;28;20040;-71
2021/06/27 01:05:18;;;;;;;6.07;3.70;;;23.50;52.40;;;;;;5035409;28;20021;-70
2021/06/27 01:07:44;;;;;;;5.97;3.60;;;23.50;52.30;;;;;;5035485;28;20022;-70
2021/06/27 01:10:10;;;;;;;6.30;3.75;;;23.50;52.40;;;;;;5035461;28;20492;-71
2021/06/27 01:12:35;;;;;;;5.22;3.47;;;23.50;52.40;;;;;;5035158;28;20108;-70
2021/06/27 01:15:06;;;;;;;6.07;3.60;;;23.50;52.40;;;;;;5035552;28;20072;-70
2021/06/27 01:17:31;;;;;;;6.38;4.20;;;23.50;52.40;;;;;;5035411;28;20021;-70
2021/06/27 01:19:57;;;;;;;5.65;3.60;;;23.50;52.40;;;;;;5035106;28;20390;-70
2021/06/27 01:22:25;;;;;;;5.57;3.50;;;23.50;52.50;;;;;;5035259;28;20044;-70
2021/06/27 01:24:51;;;;;;;5.50;3.60;;;23.40;52.50;;;;;;5035137;28;20382;-70
2021/06/27 01:27:17;;;;;;;6.25;4.10;;;23.40;52.50;;;;;;5034992;28;20022;-70
2021/06/27 01:29:42;;;;;;;6.35;3.72;;;23.40;52.50;;;;;;5035065;28;20026;-70
2021/06/27 01:32:10;;;;;;;6.15;3.80;;;23.40;52.50;;;;;;5035010;28;20453;-71
2021/06/27 01:34:38;;;;;;;6.38;3.78;;;23.40;52.50;;;;;;5034781;28;20033;-70
2021/06/27 01:37:04;;;;;;;5.82;3.65;;;23.40;52.60;;;;;;5035203;28;20025;-70
2021/06/27 01:39:29;;;;;;;6.43;4.15;;;23.40;52.60;;;;;;5034923;28;20018;-70
2021/06/27 01:41:55;;;;;;;6.95;4.03;;;23.40;52.60;;;;;;5034730;28;20038;-70
2021/06/27 01:44:21;;;;;;;5.80;3.88;;;23.40;52.60;;;;;;5034561;28;20079;-70
2021/06/27 01:46:46;;;;;;;7.32;4.40;;;23.40;52.60;;;;;;5034813;28;20120;-70
2021/06/27 01:49:13;;;;;;;7.68;4.00;;;23.40;52.60;;;;;;5034762;28;20035;-70
2021/06/27 01:51:40;;;;;;;6.20;3.97;;;23.30;52.70;;;;;;5034836;28;20041;-70
2021/06/27 01:54:06;;;;;;;7.85;3.70;;;23.30;52.60;;;;;;5034486;28;20030;-70
2021/06/27 01:56:33;;;;;;;5.97;3.85;;;23.30;52.70;;;;;;5034612;28;20373;-70
2021/06/27 01:59:02;;;;;;;5.85;3.63;;;23.30;52.70;;;;;;5034606;28;20025;-70
2021/06/27 02:01:31;;;;;;;5.90;3.83;;;23.30;52.70;;;;;;5034326;28;20041;-70
2021/06/27 02:03:57;;;;;;;6.05;3.97;;;23.30;52.70;;;;;;5034267;28;20532;-70
2021/06/27 02:06:25;;;;;;;7.78;4.25;;;23.30;52.70;;;;;;5034399;28;20084;-70
2021/06/27 02:08:53;;;;;;;5.35;3.50;;;23.30;52.80;;;;;;5034457;28;20029;-71
2021/06/27 02:11:20;;;;;;;6.18;3.88;;;23.20;52.80;;;;;;5034204;28;20248;-70
2021/06/27 02:13:47;;;;;;;5.70;3.75;;;23.30;52.80;;;;;;5034172;28;20075;-70
2021/06/27 02:16:12;;;;;;;5.50;3.50;;;23.30;52.80;;;;;;5034267;28;20025;-70
2021/06/27 02:18:41;;;;;;;6.20;4.00;;;23.20;52.90;;;;;;5034357;28;20426;-70
2021/06/27 02:21:10;;;;;;;6.72;4.72;;;23.20;52.80;;;;;;5034179;28;20065;-70
2021/06/27 02:23:36;;;;;;;7.13;3.90;;;23.20;52.80;;;;;;5034115;28;20236;-71
2021/06/27 02:26:03;;;;;;;5.85;3.80;;;23.30;52.90;;;;;;5033949;28;20026;-70
2021/06/27 02:28:30;;;;;;;7.43;4.28;;;23.20;52.90;;;;;;5034446;28;20025;-70
2021/06/27 02:30:56;;;;;;;5.88;3.70;;;23.20;52.90;;;;;;5034125;28;20026;-69
2021/06/27 02:33:22;;;;;;;7.03;4.30;;;23.20;53.00;;;;;;5034002;28;20068;-70
2021/06/27 02:35:48;;;;;;;6.45;3.88;;;23.20;52.90;;;;;;5034075;28;20022;-70
2021/06/27 02:38:14;;;;;;;5.85;3.95;;;23.20;52.90;;;;;;5033703;28;20025;-70
2021/06/27 02:40:41;;;;;;;7.35;3.72;;;23.20;52.90;;;;;;5033825;28;20056;-70
2021/06/27 02:43:07;;;;;;;6.10;3.88;;;23.20;53.00;;;;;;5033727;28;20030;-70
2021/06/27 02:45:33;;;;;;;6.05;3.83;;;23.20;52.90;;;;;;5033581;28;20037;-70
2021/06/27 02:47:59;;;;;;;6.00;3.88;;;23.20;53.00;;;;;;5033587;28;20036;-69
2021/06/27 02:50:25;;;;;;;6.45;4.10;;;23.20;53.00;;;;;;5033678;28;20029;-70
2021/06/27 02:52:50;;;;;;;5.57;3.53;;;23.20;53.00;;;;;;5033585;28;20359;-70
2021/06/27 02:55:16;;;;;;;5.80;3.72;;;23.10;52.90;;;;;;5033602;28;20035;-70
2021/06/27 02:57:42;;;;;;;6.20;4.60;;;23.20;53.00;;;;;;5033068;28;20073;-69
2021/06/27 03:00:11;;;;;;;6.13;3.83;;;23.20;53.00;;;;;;5033604;28;20025;-70
2021/06/27 03:02:36;;;;;;;5.93;4.05;;;23.10;53.00;;;;;;5033456;28;20037;-70
2021/06/27 03:05:03;;;;;;;5.55;3.80;;;23.10;53.00;;;;;;5033813;28;20017;-70
2021/06/27 03:07:29;;;;;;;6.47;4.10;;;23.10;53.00;;;;;;5033396;28;20564;-70
2021/06/27 03:09:54;;;;;;;6.93;3.83;;;23.10;53.00;;;;;;5033754;28;20045;-70
2021/06/27 03:12:20;;;;;;;5.97;3.97;;;23.10;53.00;;;;;;5033631;28;20022;-70
2021/06/27 03:14:45;;;;;;;6.28;3.80;;;23.10;53.00;;;;;;5015764;28;20056;-70
2021/06/27 03:17:11;;;;;;;5.78;3.90;;;23.10;53.00;;;;;;5033508;28;20036;-70
2021/06/27 03:19:36;;;;;;;4.82;3.53;;;23.10;53.00;;;;;;5033402;28;20028;-70
2021/06/27 03:22:02;;;;;;;6.18;3.83;;;23.10;53.00;;;;;;5035266;28;20029;-70
2021/06/27 03:24:27;;;;;;;5.60;3.63;;;23.10;53.10;;;;;;5033828;28;20154;-70
2021/06/27 03:26:53;;;;;;;6.22;4.10;;;23.10;53.00;;;;;;5033464;28;20032;-69
2021/06/27 03:29:19;;;;;;;5.80;3.47;;;23.10;53.00;;;;;;5015258;28;20018;-70
2021/06/27 03:31:44;;;;;;;6.45;3.78;;;23.10;53.10;;;;;;5033135;28;20032;-70
2021/06/27 03:34:09;;;;;;;6.40;4.03;;;23.00;53.00;;;;;;5033159;28;20443;-70
2021/06/27 03:36:35;;;;;;;6.78;3.72;;;23.00;53.10;;;;;;5033170;28;20044;-70
2021/06/27 03:39:06;;;;;;;6.10;4.00;;;23.00;53.10;;;;;;5033270;28;20024;-70
2021/06/27 03:41:40;;;;;;;6.10;4.13;;;23.10;53.10;;;;;;5033000;28;20037;-69
2021/06/27 03:44:06;;;;;;;;;;;23.00;53.10;;;;;;5033537;28;20492;-70
2021/06/27 03:46:31;;;;;;;6.43;4.10;;;23.00;53.10;;;;;;5032911;28;19917;-70
2021/06/27 03:48:57;;;;;;;6.97;4.05;;;23.00;53.10;;;;;;5032875;28;20025;-70
2021/06/27 03:51:23;;;;;;;6.63;4.05;;;23.00;53.10;;;;;;5033150;28;20108;-70
2021/06/27 03:53:49;;;;;;;5.95;3.90;;;23.00;53.10;;;;;;5032909;28;20056;-70
2021/06/27 03:56:16;;;;;;;6.25;3.85;;;23.00;53.10;;;;;;5032932;28;20054;-70
2021/06/27 03:58:42;;;;;;;5.90;3.80;;;23.00;53.20;;;;;;5032850;28;20115;-69
2021/06/27 04:01:07;;;;;;;6.25;4.18;;;23.00;53.10;;;;;;5033085;28;20076;-70
2021/06/27 04:03:33;;;;;;;6.63;4.22;;;23.00;53.10;;;;;;5032830;28;20041;-70
2021/06/27 04:05:58;;;;;;;6.18;3.80;;;23.00;53.10;;;;;;5032774;28;20013;-70
2021/06/27 04:08:24;;;;;;;6.28;3.83;;;23.00;53.10;;;;;;5032972;28;20036;-70
2021/06/27 04:10:50;;;;;;;5.72;3.53;;;23.00;53.10;;;;;;5036730;28;20120;-70
2021/06/27 04:13:16;;;;;;;5.55;3.53;;;22.90;53.10;;;;;;5036732;28;20025;-70
2021/06/27 04:15:42;;;;;;;5.20;3.45;;;22.90;53.10;;;;;;5036698;28;20079;-70
2021/06/27 04:18:08;;;;;;;5.30;3.40;;;22.90;53.10;;;;;;5036660;28;20026;-70
2021/06/27 04:20:34;;;;;;;6.38;3.88;;;23.00;53.10;;;;;;5018568;28;20408;-70
2021/06/27 04:23:00;;;;;;;7.07;3.90;;;22.90;53.10;;;;;;5036528;28;20039;-70
2021/06/27 04:25:25;;;;;;;5.93;3.97;;;23.00;53.10;;;;;;5036270;28;20021;-70
2021/06/27 04:27:51;;;;;;;5.65;3.70;;;22.90;53.10;;;;;;5036440;28;20315;-70
2021/06/27 04:30:17;;;;;;;5.47;3.40;;;22.90;53.10;;;;;;5036256;28;20049;-70
2021/06/27 04:32:43;;;;;;;5.90;3.90;;;22.90;53.10;;;;;;5036237;28;20060;-70
2021/06/27 04:35:09;;;;;;;6.00;3.88;;;23.00;53.10;;;;;;5036076;28;20048;-71
2021/06/27 04:37:36;;;;;;;5.07;3.33;;;23.00;53.10;;;;;;5036139;28;20029;-70
2021/06/27 04:40:02;;;;;;;5.68;3.80;;;22.90;53.10;;;;;;5036076;28;20021;-70
2021/06/27 04:42:28;;;;;;;5.60;3.70;;;22.90;53.10;;;;;;5018253;28;20044;-70
2021/06/27 04:44:53;;;;;;;6.00;4.13;;;23.00;53.10;;;;;;5036061;28;20033;-70
2021/06/27 04:47:19;;;;;;;6.07;3.85;;;22.90;53.10;;;;;;5036146;28;20068;-70
2021/06/27 04:49:44;;;;;;;5.85;3.83;;;23.00;53.10;;;;;;5035704;28;20017;-70
2021/06/27 04:52:11;;;;;;;6.45;3.97;;;23.00;53.10;;;;;;5036117;28;20021;-70
2021/06/27 04:54:37;;;;;;;5.03;3.38;;;22.90;53.00;;;;;;5035762;28;20489;-70
2021/06/27 04:57:04;;;;;;;7.47;4.25;;;23.00;53.00;;;;;;5035829;28;20029;-69
2021/06/27 04:59:30;;;;;;;5.68;3.60;;;23.00;53.00;;;;;;5035942;28;20021;-70
2021/06/27 05:01:55;;;;;;;6.53;3.47;;;22.90;53.00;;;;;;5035475;28;20079;-70
2021/06/27 05:04:21;;;;;;;5.47;3.47;;;22.90;53.00;;;;;;5035964;28;20029;-70
2021/06/27 05:06:46;;;;;;;5.63;3.50;;;22.90;53.00;;;;;;5035649;28;20028;-70
2021/06/27 05:09:12;;;;;;;6.57;4.15;;;22.90;53.00;;;;;;5035310;28;20080;-70
2021/06/27 05:11:37;;;;;;;7.18;4.00;;;23.00;53.00;;;;;;5035411;28;20053;-69
2021/06/27 05:14:03;;;;;;;6.00;3.85;;;22.90;53.00;;;;;;5035510;28;20390;-70
2021/06/27 05:16:28;;;;;;;5.53;3.65;;;22.90;53.00;;;;;;5035512;28;20120;-70
2021/06/27 05:18:54;;;;;;;5.97;3.65;;;22.90;53.00;;;;;;5035399;28;20025;-70
2021/06/27 05:21:20;;;;;;;5.93;3.80;;;22.90;53.00;;;;;;5034579;28;20025;-70
2021/06/27 05:23:45;;;;;;;5.95;3.53;;;22.90;53.00;;;;;;5035255;28;20080;-70
2021/06/27 05:26:11;;;;;;;6.13;3.92;;;23.00;53.00;;;;;;5035445;28;20028;-70
2021/06/27 05:28:36;;;;;;;5.55;3.50;;;22.90;53.00;;;;;;5035492;28;20031;-70
2021/06/27 05:31:02;;;;;;;5.75;3.55;;;22.90;52.90;;;;;;5035486;28;20469;-70
2021/06/27 05:33:28;;;;;;;5.30;3.40;;;23.00;52.90;;;;;;5035564;28;20075;-70
2021/06/27 05:35:53;;;;;;;5.20;3.33;;;23.00;52.90;;;;;;5017664;28;20057;-70
2021/06/27 05:38:19;;;;;;;6.53;4.30;;;23.00;52.90;;;;;;5034981;28;20037;-70
2021/06/27 05:40:44;;;;;;;5.95;3.63;;;22.90;52.90;;;;;;5034981;28;20409;-70
2021/06/27 05:43:10;;;;;;;7.40;3.40;;;23.00;52.90;;;;;;5035068;28;20484;-70
2021/06/27 05:45:35;;;;;;;6.45;4.07;;;22.90;52.90;;;;;;5034828;28;20054;-70
2021/06/27 05:48:01;;;;;;;5.55;3.78;;;22.90;52.90;;;;;;5034992;28;20034;-70
2021/06/27 05:50:26;;;;;;;6.10;3.67;;;22.90;52.90;;;;;;5034987;28;20026;-70
2021/06/27 05:52:52;;;;;;;5.80;3.55;;;23.00;52.80;;;;;;5034902;28;20021;-71
2021/06/27 05:55:17;;;;;;;5.85;3.67;;;23.00;52.80;;;;;;5035073;28;20137;-70
2021/06/27 05:57:43;;;;;;;6.15;3.80;;;23.00;52.80;;;;;;5034831;28;20071;-70
2021/06/27 06:00:09;;;;;;;5.15;3.42;;;23.00;52.70;;;;;;5035076;28;20033;-70
2021/06/27 06:02:35;;;;;;;4.93;3.30;;;23.00;52.70;;;;;;5034937;28;20029;-70
2021/06/27 06:05:01;;;;;;;6.47;4.28;;;23.00;52.60;;;;;;5034763;28;20032;-70
2021/06/27 06:07:26;;;;;;;6.07;3.60;;;23.00;52.60;;;;;;5034759;28;20032;-70
2021/06/27 06:09:52;;;;;;;5.07;3.22;;;23.00;52.70;;;;;;5034902;28;20068;-71
2021/06/27 06:12:17;;;;;;;6.03;3.97;;;23.00;52.60;;;;;;5034652;28;20346;-70
2021/06/27 06:14:43;;;;;;;5.85;3.53;;;23.00;52.60;;;;;;5034680;28;20034;-70
2021/06/27 06:17:08;;;;;;;6.03;3.67;;;23.00;52.50;;;;;;5034639;28;20545;-70
2021/06/27 06:19:34;;;;;;;5.72;3.60;;;23.10;52.50;;;;;;5034619;28;20033;-70
2021/06/27 06:21:59;;;;;;;5.60;3.72;;;23.10;52.60;;;;;;5034534;28;20069;-70
2021/06/27 06:24:25;;;;;;;5.07;3.25;;;23.10;52.50;;;;;;5034774;28;20044;-71
2021/06/27 06:26:50;;;;;;;5.78;3.63;;;23.10;52.50;;;;;;5035384;28;20029;-70
2021/06/27 06:29:16;;;;;;;5.53;3.53;;;23.10;52.50;;;;;;5040619;28;20017;-71
2021/06/27 06:31:42;;;;;;;5.43;3.55;;;23.10;52.50;;;;;;5044101;28;20030;-71
2021/06/27 06:34:07;;;;;;;5.40;3.40;;;23.10;52.50;;;;;;5044457;28;20429;-71
2021/06/27 06:36:33;;;;;;;5.90;4.10;;;23.10;52.50;;;;;;5044977;28;20056;-71
2021/06/27 06:38:59;;;;;;;6.88;3.63;;;23.20;52.50;;;;;;5044929;28;20025;-72
2021/06/27 06:41:24;;;;;;;5.47;3.50;;;23.10;52.40;;;;;;5047208;28;20041;-70
2021/06/27 06:43:50;;;;;;;5.93;3.40;;;23.20;52.40;;;;;;5044750;28;20033;-71
2021/06/27 06:46:16;;;;;;;6.20;3.72;;;23.20;52.50;;;;;;5044503;28;20054;-71
2021/06/27 06:48:41;;;;;;;5.68;3.25;;;23.20;52.40;;;;;;5044167;28;20021;-70
2021/06/27 06:51:07;;;;;;;6.40;3.92;;;23.20;52.40;;;;;;5036413;28;20033;-70
2021/06/27 06:53:32;;;;;;;5.90;3.33;;;23.20;52.40;;;;;;5033835;28;20022;-71
2021/06/27 06:55:58;;;;;;;5.35;3.35;;;23.20;52.40;;;;;;5033709;28;20496;-70
2021/06/27 06:58:29;;;;;;;6.10;3.72;;;23.20;52.30;;;;;;5033719;28;20517;-70
2021/06/27 07:00:58;;;;;;;6.05;3.60;;;23.20;52.40;;;;;;5033688;28;20033;-70
2021/06/27 07:03:24;;;;;;;5.80;3.67;;;23.20;52.30;;;;;;5033570;28;20048;-70
2021/06/27 07:05:50;;;;;;;6.10;3.40;;;23.20;52.30;;;;;;5033488;28;20017;-71
2021/06/27 07:08:16;;;;;;;5.70;3.40;;;23.30;52.20;;;;;;5033680;28;20033;-70
2021/06/27 07:10:41;;;;;;;5.20;3.33;;;23.30;52.20;;;;;;5033668;28;20036;-70
2021/06/27 07:13:07;;;;;;;6.32;3.40;;;23.30;52.20;;;;;;5033386;28;20022;-70
2021/06/27 07:15:33;;;;;;;5.78;3.70;;;23.30;52.20;;;;;;5033192;28;20492;-70
2021/06/27 07:17:58;;;;;;;5.55;3.63;;;23.30;52.10;;;;;;5033006;28;20021;-71
2021/06/27 07:20:24;;;;;;;5.95;3.47;;;23.30;52.10;;;;;;5032890;28;20033;-70
2021/06/27 07:22:49;;;;;;;5.75;3.55;;;23.40;52.10;;;;;;5033074;28;20042;-70
2021/06/27 07:25:15;;;;;;;7.68;3.72;;;23.40;52.10;;;;;;5032836;28;20131;-70
2021/06/27 07:27:40;;;;;;;6.20;3.90;;;23.40;52.10;;;;;;5032793;28;20109;-70
2021/06/27 07:30:08;;;;;;;6.15;3.72;;;23.40;52.10;;;;;;5032826;28;20026;-70
2021/06/27 07:32:34;;;;;;;5.50;3.53;;;23.40;52.00;;;;;;5015228;28;20074;-70
2021/06/27 07:34:59;;;;;;;6.38;3.72;;;23.40;52.00;;;;;;5032807;28;20021;-69
2021/06/27 07:37:25;;;;;;;5.65;3.63;;;23.40;52.00;;;;;;5032767;28;20029;-70
2021/06/27 07:39:51;;;;;;;5.15;3.20;;;23.50;51.90;;;;;;5015108;28;20037;-70
2021/06/27 07:42:16;;;;;;;6.43;3.90;;;23.50;51.90;;;;;;5032667;28;20392;-70
2021/06/27 07:44:42;;;;;;;6.05;3.42;;;23.50;51.90;;;;;;5036803;28;20045;-70
2021/06/27 07:47:08;;;;;;;6.10;3.78;;;23.50;51.90;;;;;;5036890;28;20119;-70
2021/06/27 07:49:33;;;;;;;5.25;3.13;;;23.50;51.90;;;;;;5036671;28;20385;-70
2021/06/27 07:51:59;;;;;;;4.85;3.30;;;23.50;51.80;;;;;;5036694;28;20034;-70
2021/06/27 07:54:24;;;;;;;5.53;3.55;;;23.50;51.80;;;;;;5019050;28;20030;-70
2021/06/27 07:56:50;;;;;;;6.95;3.78;;;23.50;51.80;;;;;;5043142;28;20084;-70
2021/06/27 07:59:16;;;;;;;4.78;3.25;;;23.50;51.90;;;;;;5037643;28;20140;-70
2021/06/27 08:01:41;;;;;;;6.88;3.90;;;23.50;51.90;;;;;;5037105;28;20022;-70
2021/06/27 08:04:07;;;;;;;5.45;3.55;;;23.50;51.90;;;;;;5036815;28;20389;-70
2021/06/27 08:06:32;;;;;;;5.30;3.10;;;23.50;51.90;;;;;;5036978;28;20116;-70
2021/06/27 08:08:58;;;;;;;7.75;3.60;;;23.50;51.90;;;;;;5036829;28;20099;-70
2021/06/27 08:11:23;;;;;;;5.68;3.55;;;23.50;52.00;;;;;;5036946;28;20044;-70
2021/06/27 08:13:49;;;;;;;6.25;3.60;;;23.50;52.00;;;;;;5036579;28;20022;-70
2021/06/27 08:16:15;;;;;;;5.57;3.50;;;23.50;52.10;;;;;;5036637;28;20456;-70
2021/06/27 08:18:40;;;;;;;5.82;3.88;;;23.50;52.10;;;;;;5036334;28;20036;-69
2021/06/27 08:21:06;;;;;;;5.22;3.35;;;23.50;52.10;;;;;;5036409;28;20076;-70
2021/06/27 08:23:32;;;;;;;5.88;3.38;;;23.50;52.10;;;;;;5036060;28;20037;-70
2021/06/27 08:25:57;;;;;;;5.70;3.17;;;23.50;52.00;;;;;;5036173;28;20040;-70
2021/06/27 08:28:23;;;;;;;5.50;3.42;;;23.50;52.00;;;;;;5036370;28;20036;-70
2021/06/27 08:30:48;;;;;;;5.63;3.38;;;23.50;52.00;;;;;;5036088;28;20036;-70
2021/06/27 08:33:14;;;;;;;6.65;3.67;;;23.50;52.10;;;;;;5036165;28;20425;-70
2021/06/27 08:35:40;;;;;;;5.78;3.58;;;23.50;52.00;;;;;;5036560;28;20026;-70
2021/06/27 08:38:06;;;;;;;5.25;3.10;;;23.50;52.00;;;;;;5035980;28;20054;-70
2021/06/27 08:40:31;;;;;;;5.70;3.00;;;23.50;52.00;;;;;;5035959;28;20061;-70
2021/06/27 08:42:59;;;;;;;5.55;3.25;;;23.50;52.00;;;;;;5035723;28;20037;-70
2021/06/27 08:45:26;;;;;;;4.85;3.13;;;23.50;52.10;;;;;;5035780;28;20502;-70
2021/06/27 08:47:53;;;;;;;6.20;3.83;;;23.50;52.10;;;;;;5035759;28;20440;-70
2021/06/27 08:50:20;;;;;;;5.72;3.35;;;23.50;52.00;;;;;;5035808;28;20083;-70
2021/06/27 08:52:46;;;;;;;5.63;3.42;;;23.50;52.10;;;;;;5035846;28;20036;-70
2021/06/27 08:55:14;;;;;;;6.32;3.38;;;23.50;52.10;;;;;;5035009;28;20047;-70
2021/06/27 08:57:40;;;;;;;6.18;3.70;;;23.50;52.10;;;;;;5035895;28;20044;-70
2021/06/27 09:00:08;;;;;;;4.72;3.08;;;23.50;52.10;;;;;;5035953;28;20409;-70
2021/06/27 09:02:33;;;;;;;6.07;3.72;;;23.60;52.20;;;;;;5035296;28;20033;-70
2021/06/27 09:04:59;;;;;;;4.70;3.05;;;23.50;52.10;;;;;;5035681;28;20029;-70
2021/06/27 09:07:30;;;;;;;6.60;3.53;;;23.60;52.00;;;;;;5035563;28;20389;-70
2021/06/27 09:10:16;;;;;;;6.45;3.47;;;23.60;52.00;;;;;;5035543;28;20022;-70
2021/06/27 09:12:49;;;;;;;5.30;3.40;;;23.60;52.00;;;;;;5024620;28;20049;-70
2021/06/27 09:15:31;;;;;;;5.50;3.13;;;23.60;52.10;;;;;;5035388;28;20482;-70
2021/06/27 09:17:57;;;;;;;6.03;3.55;;;23.60;52.10;;;;;;5035259;28;20105;-70
2021/06/27 09:20:24;;;;;;;5.03;3.10;;;23.60;52.10;;;;;;5035323;28;20028;-70
2021/06/27 09:22:52;;;;;;;5.25;3.08;;;23.70;52.00;;;;;;5035288;28;20041;-70
2021/06/27 09:25:26;;;;;;;5.53;3.30;;;23.60;52.00;;;;;;5035179;28;20416;-70
2021/06/27 09:28:14;;;;;;;6.15;3.80;;;23.60;52.00;;;;;;5035499;28;20025;-69
2021/06/27 09:30:47;;;;;;;5.63;3.50;;;23.70;52.00;;;;;;5035175;28;20048;-70
2021/06/27 09:33:22;;;;;;;6.07;3.72;;;23.70;51.90;;;;;;5035343;28;20044;-71
2021/06/27 09:35:49;;;;;;;5.65;3.47;;;23.70;51.90;;;;;;5034927;28;20032;-70
2021/06/27 09:38:38;;;;;;;4.53;2.85;;;23.70;51.90;;;;;;5035381;28;20028;-70
2021/06/27 09:41:06;;;;;;;4.85;3.22;;;23.70;51.90;;;;;;5034926;28;20060;-70
2021/06/27 09:43:34;;;;;;;5.47;3.55;;;23.70;51.90;;;;;;5035025;28;20164;-71
2021/06/27 09:46:13;;;;;;;5.60;3.50;;;23.70;51.90;;;;;;5034574;28;20053;-70
2021/06/27 09:48:56;;;;;;;5.20;3.25;;;23.70;52.00;;;;;;5035202;28;20033;-70
2021/06/27 09:51:25;;;;;;;5.45;3.58;;;23.70;52.00;;;;;;5034997;28;20026;-70
2021/06/27 09:53:51;;;;;;;5.30;3.10;;;23.70;52.00;;;;;;5034765;28;20025;-70
2021/06/27 09:56:19;;;;;;;5.43;3.20;;;23.70;51.90;;;;;;5037702;28;20021;-70
2021/06/27 09:59:00;;;;;;;4.85;2.85;;;23.70;51.90;;;;;;5036782;28;20021;-70
2021/06/27 10:01:28;;;;;;;5.35;3.28;;;23.80;51.90;;;;;;5034938;28;20485;-70
2021/06/27 10:03:57;;;;;;;5.38;3.40;;;23.70;51.90;;;;;;5035110;28;20071;-70
2021/06/27 10:06:42;;;;;;;5.13;3.25;;;23.80;51.80;;;;;;5034890;28;20025;-70
2021/06/27 10:09:16;;;;;;;5.53;3.45;;;23.80;51.80;;;;;;5034601;28;20029;-70
2021/06/27 10:12:03;;;;;;;5.20;3.10;;;23.80;51.90;;;;;;5034998;28;20029;-70
2021/06/27 10:14:33;;;;;;;5.55;3.35;;;23.80;51.80;;;;;;5034259;28;20496;-70
2021/06/27 10:17:01;;;;;;;5.25;3.30;;;23.90;51.90;;;;;;5034236;28;20025;-70
2021/06/27 10:19:27;;;;;;;4.82;2.85;;;23.90;51.80;;;;;;5034440;28;20108;-70
2021/06/27 10:21:58;;;;;;;5.45;3.33;;;23.90;51.80;;;;;;5034532;28;20037;-70
2021/06/27 10:24:25;;;;;;;5.28;3.33;;;23.90;51.80;;;;;;5034181;28;20029;-70
2021/06/27 10:26:51;;;;;;;5.40;3.35;;;23.90;51.80;;;;;;5034286;28;20025;-70
2021/06/27 10:29:22;;;;;;;6.00;3.70;;;23.90;51.70;;;;;;5033685;28;20117;-70
2021/06/27 10:31:51;;;;;;;5.13;3.33;;;23.90;51.80;;;;;;5034160;28;20029;-70
2021/06/27 10:34:17;;;;;;;6.18;3.72;;;23.90;51.70;;;;;;5034217;28;20498;-70
2021/06/27 10:36:46;;;;;;;5.65;3.70;;;23.90;51.70;;;;;;5034040;28;20076;-70
2021/06/27 10:39:14;;;;;;;5.22;3.28;;;24.00;51.70;;;;;;5034038;28;20048;-70
2021/06/27 10:41:55;;;;;;;5.53;3.33;;;24.00;51.70;;;;;;5016060;28;20513;-70
2021/06/27 10:44:24;;;;;;;5.07;3.25;;;24.00;51.70;;;;;;5033502;28;20057;-69
2021/06/27 10:46:55;;;;;;;5.15;3.40;;;24.00;51.70;;;;;;5033756;28;20512;-70
2021/06/27 10:49:33;;;;;;;6.13;3.55;;;24.00;51.70;;;;;;5033633;28;20121;-70
2021/06/27 10:52:03;;;;;;;5.20;3.55;;;24.00;51.70;;;;;;5033883;28;20025;-70
2021/06/27 10:54:29;;;;;;;6.05;3.17;;;24.00;51.70;;;;;;5033697;28;20107;-70
2021/06/27 10:57:03;;;;;;;7.03;3.47;;;24.00;51.80;;;;;;5033751;28;20025;-70
2021/06/27 10:59:38;;;;;;;4.35;2.97;;;24.00;51.60;;;;;;5033750;28;20084;-70
2021/06/27 11:02:17;;;;;;;4.65;3.00;;;24.10;51.60;;;;;;5033506;28;20059;-70
2021/06/27 11:04:43;;;;;;;4.65;3.10;;;24.10;51.60;;;;;;5033615;28;20474;-70
2021/06/27 11:07:32;;;;;;;5.00;3.10;;;24.10;51.60;;;;;;5033573;28;20030;-70
2021/06/27 11:10:21;;;;;;;4.60;2.90;;;24.10;51.50;;;;;;5033478;28;20071;-69
2021/06/27 11:13:01;;;;;;;4.95;3.30;;;24.20;51.50;;;;;;5025318;28;20065;-71
2021/06/27 11:15:30;;;;;;;6.22;3.50;;;24.20;51.50;;;;;;5015743;28;20022;-70
2021/06/27 11:18:01;;;;;;;5.30;3.30;;;24.20;51.40;;;;;;5033349;28;20030;-70
2021/06/27 11:20:30;;;;;;;5.45;3.17;;;24.20;51.50;;;;;;5033449;28;20022;-70
2021/06/27 11:22:57;;;;;;;5.15;2.95;;;24.30;51.50;;;;;;5032975;28;20505;-70
2021/06/27 11:25:39;;;;;;;5.00;3.00;;;24.20;51.40;;;;;;5033257;28;20018;-70
2021/06/27 11:28:20;;;;;;;5.63;3.50;;;24.30;51.30;;;;;;5032937;28;20026;-69
2021/06/27 11:30:46;;;;;;;4.97;3.15;;;24.30;51.40;;;;;;5033049;28;20522;-70
2021/06/27 11:33:18;;;;;;;4.38;2.72;;;24.40;51.30;;;;;;5032757;28;20081;-70
2021/06/27 11:35:49;;;;;;;5.50;3.15;;;24.40;51.20;;;;;;5015414;28;20021;-70
2021/06/27 11:38:39;;;;;;;4.80;3.00;;;24.40;51.20;;;;;;5033371;28;20025;-70
2021/06/27 11:41:05;;;;;;;5.05;3.17;;;24.40;51.20;;;;;;5033274;28;20025;-70
2021/06/27 11:44:15;;;;;;;4.85;3.08;;;24.40;51.20;;;;;;5033063;28;20500;-70
2021/06/27 11:46:47;;;;;;;4.93;3.13;;;24.50;51.10;;;;;;5029940;28;20105;-70
2021/06/27 11:49:25;;;;;;;5.35;3.08;;;24.50;51.20;;;;;;5033013;28;20048;-71
2021/06/27 11:51:52;;;;;;;4.80;3.13;;;24.50;51.20;;;;;;5033002;28;20033;-70
2021/06/27 11:54:24;;;;;;;6.35;3.72;;;24.40;51.30;;;;;;5033204;28;20033;-70
2021/06/27 11:57:18;;;;;;;5.40;3.30;;;24.50;51.20;;;;;;5032970;28;20026;-70
2021/06/27 11:59:54;;;;;;;5.40;3.22;;;24.50;51.10;;;;;;5020342;28;20041;-70
2021/06/27 12:02:26;;;;;;;5.60;3.45;;;24.50;51.20;;;;;;5032912;28;20064;-70
2021/06/27 12:04:57;;;;;;;5.03;3.00;;;24.50;51.30;;;;;;5033064;28;20021;-70
2021/06/27 12:07:31;;;;;;;5.35;3.25;;;24.50;51.10;;;;;;5032606;28;20433;-71
2021/06/27 12:09:56;;;;;;;5.38;3.17;;;24.60;51.00;;;;;;5033149;28;20017;-70
2021/06/27 12:12:54;;;;;;;5.43;3.60;;;24.60;51.00;;;;;;5032872;28;20025;-70
2021/06/27 12:15:19;;;;;;;6.15;3.88;;;24.70;50.90;;;;;;5021042;28;20041;-70
2021/06/27 12:17:47;;;;;;;5.15;3.20;;;24.70;50.90;;;;;;5032976;28;20021;-71
2021/06/27 12:20:14;;;;;;;6.88;3.45;;;24.80;50.80;;;;;;5032930;28;20512;-70
2021/06/27 12:22:59;;;;;;;5.15;3.28;;;24.80;50.80;;;;;;5033048;28;20568;-70
2021/06/27 12:25:37;;;;;;;6.10;3.80;;;24.80;50.70;;;;;;5033199;28;20105;-71
2021/06/27 12:28:08;;;;;;;5.20;3.05;;;24.90;50.60;;;;;;5032542;28;20112;-70
2021/06/27 12:30:50;;;;;;;4.75;3.30;;;25.00;50.50;;;;;;5017253;28;20378;-69
2021/06/27 12:33:22;;;;;;;4.78;3.10;;;25.00;50.40;;;;;;5036588;28;20108;-70
2021/06/27 12:35:50;;;;;;;4.47;2.83;;;25.00;50.30;;;;;;5036079;28;20464;-70
2021/06/27 12:38:17;;;;;;;4.53;2.90;;;25.10;50.20;;;;;;5036137;28;20430;-70
2021/06/27 12:40:48;;;;;;;4.85;2.80;;;25.20;50.10;;;;;;5036030;28;20025;-70
2021/06/27 12:43:25;;;;;;;4.75;2.78;;;25.20;50.00;;;;;;5035853;28;20067;-70
2021/06/27 12:46:12;;;;;;;5.10;3.10;;;25.20;49.90;;;;;;5035727;28;20126;-70
2021/06/27 12:48:37;;;;;;;4.68;3.13;;;25.30;49.80;;;;;;5035925;28;20347;-70
2021/06/27 12:51:04;;;;;;;4.85;2.97;;;25.40;49.80;;;;;;5035773;28;20040;-70
2021/06/27 12:53:30;;;;;;;4.10;2.42;;;25.40;49.70;;;;;;5035911;28;20021;-69